Time;durP1;ratioP1;P1;durP2;ratioP2;P2;SDS_P1;SDS_P2;PMS_P1;PMS_P2;Temp;Humidity;BMP_temperature;BMP_pressure;BME280_temperature;BME280_humidity;BME280_pressure;Samples;Min_cycle;Max_cycle;Signal;HPM_P1;HPM_P2
2022/12/21 00:01:37;;;;;;;16.27;9.02;;;11.70;99.90;;;;;;5071510;28;20028;-77
2022/12/21 00:04:05;;;;;;;16.00;9.23;;;11.70;99.90;;;;;;5091266;28;20020;-77
2022/12/21 00:06:34;;;;;;;18.95;9.68;;;11.80;99.90;;;;;;5091276;28;20115;-77
2022/12/21 00:09:02;;;;;;;14.45;7.43;;;11.80;99.90;;;;;;5091758;28;20493;-77
2022/12/21 00:11:30;;;;;;;16.65;8.40;;;11.80;99.90;;;;;;5091286;28;20481;-78
2022/12/21 00:13:57;;;;;;;13.68;8.02;;;11.80;99.90;;;;;;5091320;28;20024;-78
2022/12/21 00:16:25;;;;;;;14.05;7.72;;;11.80;99.90;;;;;;5091517;28;20085;-78
2022/12/21 00:18:50;;;;;;;12.68;7.22;;;11.70;99.90;;;;;;5091520;28;20030;-78
2022/12/21 00:21:21;;;;;;;12.20;7.00;;;11.80;99.90;;;;;;5090855;28;20028;-77
2022/12/21 00:23:51;;;;;;;13.82;6.82;;;11.80;99.90;;;;;;5091682;28;20100;-77
2022/12/21 00:26:19;;;;;;;10.27;6.13;;;11.80;99.90;;;;;;5090914;28;20023;-78
2022/12/21 00:28:46;;;;;;;10.85;5.97;;;11.80;99.90;;;;;;5091033;28;20024;-77
2022/12/21 00:31:13;;;;;;;13.07;6.22;;;11.90;99.90;;;;;;5082152;28;20142;-78
2022/12/21 00:33:39;;;;;;;9.90;6.28;;;11.90;99.90;;;;;;5070354;28;20025;-78
2022/12/21 00:36:07;;;;;;;10.50;6.13;;;11.90;99.90;;;;;;5069715;28;20051;-78
2022/12/21 00:38:34;;;;;;;8.27;6.13;;;11.90;99.90;;;;;;5069910;28;20048;-78
2022/12/21 00:41:02;;;;;;;6.72;5.38;;;12.00;99.90;;;;;;5069988;28;20107;-78
2022/12/21 00:43:29;;;;;;;7.78;5.53;;;12.00;99.90;;;;;;5069301;28;20059;-78
2022/12/21 00:45:55;;;;;;;7.78;4.85;;;12.00;99.90;;;;;;5069676;28;20036;-77
2022/12/21 00:48:21;;;;;;;8.52;4.93;;;12.00;99.90;;;;;;5069992;28;20016;-78
2022/12/21 00:50:47;;;;;;;6.72;4.88;;;12.00;99.90;;;;;;5069580;28;20021;-78
2022/12/21 00:53:15;;;;;;;7.57;4.88;;;12.00;99.90;;;;;;5070102;28;20518;-79
2022/12/21 00:55:41;;;;;;;7.03;4.57;;;12.00;99.90;;;;;;5069943;28;20025;-78
2022/12/21 00:58:07;;;;;;;6.88;5.05;;;12.00;99.90;;;;;;5069842;28;20497;-78
2022/12/21 01:00:33;;;;;;;8.82;5.30;;;12.00;99.90;;;;;;5069686;28;20050;-78
2022/12/21 01:02:59;;;;;;;9.68;5.00;;;12.10;99.90;;;;;;5069668;28;20052;-77
2022/12/21 01:05:27;;;;;;;9.45;5.53;;;12.10;99.90;;;;;;5069786;28;20032;-78
2022/12/21 01:07:52;;;;;;;12.60;6.75;;;12.10;99.90;;;;;;5070174;28;20020;-78
2022/12/21 01:10:18;;;;;;;11.10;6.63;;;11.90;99.90;;;;;;5069698;28;20025;-77
2022/12/21 01:12:44;;;;;;;11.15;5.97;;;11.80;99.90;;;;;;5070038;28;20091;-78
2022/12/21 01:15:09;;;;;;;10.63;6.90;;;11.90;99.90;;;;;;5068385;28;20508;-78
2022/12/21 01:17:35;;;;;;;12.88;6.45;;;11.80;99.90;;;;;;5069573;28;20530;-78
2022/12/21 01:20:01;;;;;;;13.27;6.47;;;11.80;99.90;;;;;;5069465;28;20616;-78
2022/12/21 01:22:27;;;;;;;11.05;6.85;;;11.80;99.90;;;;;;5069636;28;20054;-78
2022/12/21 01:24:52;;;;;;;12.13;6.85;;;11.90;99.90;;;;;;5069047;28;20417;-78
2022/12/21 01:27:18;;;;;;;9.65;6.30;;;11.90;99.90;;;;;;5016628;28;1516449;-78
2022/12/21 01:29:44;;;;;;;13.20;6.43;;;12.00;99.90;;;;;;5070226;28;20523;-78
2022/12/21 01:32:09;;;;;;;12.95;6.35;;;11.90;99.90;;;;;;5070355;28;20452;-78
2022/12/21 01:34:35;;;;;;;8.80;5.70;;;12.00;99.90;;;;;;5070467;28;20124;-78
2022/12/21 01:37:00;;;;;;;8.82;5.10;;;12.00;99.90;;;;;;5070356;28;20498;-78
2022/12/21 01:39:29;;;;;;;6.60;5.03;;;12.00;99.90;;;;;;5074845;28;20031;-78
2022/12/21 01:41:54;;;;;;;7.57;4.90;;;12.00;99.90;;;;;;5090150;28;20043;-78
2022/12/21 01:45:02;;;;;;;8.30;4.75;;;12.00;99.90;;;;;;5090258;28;20109;-78
2022/12/21 01:47:54;;;;;;;12.02;5.10;;;12.00;99.90;;;;;;5007979;28;20042;-78
2022/12/21 01:50:20;;;;;;;6.43;4.30;;;11.90;99.90;;;;;;4983954;28;20110;-78
2022/12/21 01:52:45;;;;;;;7.72;4.55;;;11.90;99.90;;;;;;4988448;28;20137;-78
2022/12/21 01:55:11;;;;;;;8.35;4.88;;;11.90;99.90;;;;;;4988666;28;20034;-78
2022/12/21 01:57:37;;;;;;;7.93;5.00;;;11.90;99.90;;;;;;4988984;28;20425;-78
2022/12/21 02:00:04;;;;;;;8.15;4.97;;;11.90;99.90;;;;;;4988837;28;20076;-78
2022/12/21 02:02:35;;;;;;;5.47;3.95;;;11.90;99.90;;;;;;4989114;28;20038;-78
2022/12/21 02:05:11;;;;;;;8.18;5.07;;;11.90;99.90;;;;;;4988785;28;20030;-78
2022/12/21 02:07:38;;;;;;;7.32;4.80;;;11.90;99.90;;;;;;4989058;28;20035;-78
2022/12/21 02:10:05;;;;;;;4.85;3.72;;;11.90;99.90;;;;;;4988311;28;20197;-78
2022/12/21 02:12:31;;;;;;;9.68;3.90;;;11.80;99.90;;;;;;4988801;28;20104;-78
2022/12/21 02:14:56;;;;;;;6.85;4.18;;;11.80;99.90;;;;;;4988641;28;20564;-77
2022/12/21 02:17:30;;;;;;;6.63;4.47;;;11.80;99.90;;;;;;4997317;28;20527;-77
2022/12/21 02:20:27;;;;;;;6.95;3.90;;;11.80;99.90;;;;;;4991707;28;20041;-78
2022/12/21 02:23:14;;;;;;;4.80;3.78;;;11.80;99.90;;;;;;4988498;28;20081;-78
2022/12/21 02:26:03;;;;;;;5.40;3.83;;;11.80;99.90;;;;;;5069488;28;20039;-77
2022/12/21 02:28:50;;;;;;;5.53;4.13;;;11.80;99.90;;;;;;5073710;28;20040;-78
2022/12/21 02:31:19;;;;;;;4.47;3.65;;;11.80;99.90;;;;;;5073380;28;20064;-78
2022/12/21 02:34:04;;;;;;;4.45;3.58;;;11.80;99.90;;;;;;5074049;28;20020;-78
2022/12/21 02:36:47;;;;;;;3.85;3.45;;;11.70;99.90;;;;;;5073463;28;20031;-78
2022/12/21 02:39:16;;;;;;;5.93;3.30;;;11.60;99.90;;;;;;5068558;28;20020;-78
2022/12/21 02:45:25;;;;;;;4.53;2.95;;;11.60;99.90;;;;;;5011698;28;20037;-78
2022/12/21 02:48:04;;;;;;;3.22;2.90;;;11.60;99.90;;;;;;5011463;28;20042;-78
2022/12/21 02:50:34;;;;;;;3.05;2.83;;;11.60;99.90;;;;;;5012915;28;20061;-78
2022/12/21 02:53:22;;;;;;;4.00;2.83;;;11.60;99.90;;;;;;5011627;28;20609;-78
2022/12/21 02:55:48;;;;;;;2.70;2.40;;;11.50;99.90;;;;;;5011213;28;20049;-78
2022/12/21 02:58:13;;;;;;;3.92;2.90;;;11.60;99.90;;;;;;5011204;28;20030;-78
2022/12/21 03:00:51;;;;;;;3.55;3.00;;;11.50;99.90;;;;;;5011116;28;20515;-78
2022/12/21 03:03:49;;;;;;;3.30;2.70;;;11.40;99.90;;;;;;5011183;28;20120;-78
2022/12/21 03:06:33;;;;;;;3.55;2.90;;;11.50;99.90;;;;;;5010574;28;20042;-78
2022/12/21 03:09:28;;;;;;;3.25;2.67;;;11.40;99.90;;;;;;5013655;28;20040;-78
2022/12/21 03:12:49;;;;;;;4.30;2.80;;;11.40;99.90;;;;;;5010117;28;20117;-78
2022/12/21 03:15:18;;;;;;;4.15;2.95;;;11.40;99.90;;;;;;4932480;29;20063;-78
2022/12/21 03:17:43;;;;;;;3.25;2.55;;;11.50;99.90;;;;;;4932664;29;20177;-78
2022/12/21 03:20:31;;;;;;;3.05;2.50;;;11.40;99.90;;;;;;4932884;29;20176;-78
2022/12/21 03:23:16;;;;;;;3.60;2.70;;;11.30;99.90;;;;;;4977124;28;20520;-78
2022/12/21 03:25:55;;;;;;;4.20;2.90;;;11.30;99.90;;;;;;4981466;28;20046;-78
2022/12/21 03:28:32;;;;;;;2.60;2.40;;;11.20;99.90;;;;;;4990517;28;20046;-78
2022/12/21 03:31:02;;;;;;;2.88;2.30;;;11.10;99.90;;;;;;4984289;28;20058;-78
2022/12/21 03:33:32;;;;;;;3.30;2.38;;;11.10;99.90;;;;;;4978984;28;20089;-79
2022/12/21 03:36:05;;;;;;;4.10;2.28;;;11.10;99.90;;;;;;4975909;28;20082;-78
2022/12/21 03:38:48;;;;;;;3.15;2.35;;;11.10;99.90;;;;;;4979318;28;20043;-78
2022/12/21 03:41:30;;;;;;;3.15;2.55;;;11.10;99.90;;;;;;4990126;28;20030;-78
2022/12/21 03:44:01;;;;;;;4.05;2.72;;;11.10;99.90;;;;;;4990290;28;20026;-78
2022/12/21 03:46:55;;;;;;;2.95;2.38;;;11.20;99.90;;;;;;4990172;28;20619;-78
2022/12/21 03:49:31;;;;;;;4.88;2.70;;;11.30;99.90;;;;;;4989523;28;20034;-78
2022/12/21 03:52:10;;;;;;;4.10;2.70;;;11.30;99.90;;;;;;5025490;28;20037;-78
2022/12/21 03:54:59;;;;;;;3.60;2.78;;;11.30;99.90;;;;;;5071731;28;20025;-78
2022/12/21 03:57:26;;;;;;;3.75;3.05;;;11.30;99.90;;;;;;5070836;28;20178;-78
2022/12/21 03:59:54;;;;;;;3.20;2.30;;;11.30;99.90;;;;;;5084033;28;20077;-78
2022/12/21 04:02:55;;;;;;;3.67;2.45;;;11.30;99.90;;;;;;5091687;28;20028;-78
2022/12/21 04:05:41;;;;;;;3.47;2.65;;;11.30;99.90;;;;;;5009244;28;20063;-78
2022/12/21 04:08:07;;;;;;;2.83;2.40;;;11.20;99.90;;;;;;5009275;28;20030;-78
2022/12/21 04:10:33;;;;;;;2.80;2.60;;;11.10;99.90;;;;;;5009195;28;20030;-78
2022/12/21 04:12:58;;;;;;;2.95;2.38;;;11.10;99.90;;;;;;5008421;28;20095;-78
2022/12/21 04:18:11;;;;;;;3.50;2.80;;;10.90;99.90;;;;;;5009401;28;20068;-78
2022/12/21 04:20:37;;;;;;;3.33;2.42;;;10.90;99.90;;;;;;5009105;28;20042;-78
2022/12/21 04:28:32;;;;;;;2.38;2.17;;;11.00;99.90;;;;;;5009244;28;20053;-78
2022/12/21 04:31:00;;;;;;;2.63;2.42;;;11.00;99.90;;;;;;5002881;28;20093;-78
2022/12/21 04:33:28;;;;;;;2.92;2.60;;;11.00;99.90;;;;;;4989396;28;20027;-78
2022/12/21 04:38:40;;;;;;;2.60;2.40;;;11.10;99.90;;;;;;5005558;28;20071;-78
2022/12/21 04:41:07;;;;;;;2.72;2.40;;;11.20;99.90;;;;;;5087398;28;20020;-78
2022/12/21 04:43:36;;;;;;;2.50;2.20;;;11.20;99.90;;;;;;5090782;28;20043;-78
2022/12/21 04:46:11;;;;;;;3.20;2.65;;;11.20;99.90;;;;;;5091425;28;20103;-79
2022/12/21 04:48:37;;;;;;;4.30;2.30;;;11.10;99.90;;;;;;5091441;28;20024;-77
2022/12/21 04:51:08;;;;;;;2.40;2.20;;;11.20;99.90;;;;;;5082180;28;20304;-77
2022/12/21 04:53:34;;;;;;;2.33;2.08;;;11.20;99.90;;;;;;5070501;28;20032;-78
2022/12/21 04:56:00;;;;;;;4.00;2.55;;;11.20;99.90;;;;;;5070048;28;20534;-78
2022/12/21 04:58:26;;;;;;;2.50;2.10;;;11.10;99.90;;;;;;5070341;28;20029;-78
2022/12/21 05:00:52;;;;;;;2.72;2.35;;;11.00;99.90;;;;;;5070991;28;20067;-78
2022/12/21 05:03:19;;;;;;;2.30;2.10;;;11.00;99.90;;;;;;5086189;28;20029;-78
2022/12/21 05:05:45;;;;;;;2.55;2.28;;;11.10;99.90;;;;;;5070967;28;20020;-78
2022/12/21 05:08:12;;;;;;;2.47;2.25;;;11.00;99.90;;;;;;5071397;28;20021;-78
2022/12/21 05:10:38;;;;;;;4.10;2.55;;;11.00;99.90;;;;;;5090672;28;20016;-78
2022/12/21 05:13:04;;;;;;;3.22;2.47;;;11.00;99.90;;;;;;5090687;28;20034;-78
2022/12/21 05:15:30;;;;;;;2.85;2.53;;;11.00;99.90;;;;;;5090939;28;20099;-78
2022/12/21 05:17:57;;;;;;;3.03;2.60;;;11.00;99.90;;;;;;5090686;28;20599;-79
2022/12/21 05:20:23;;;;;;;2.58;2.35;;;11.00;99.90;;;;;;5091043;28;20016;-78
2022/12/21 05:22:49;;;;;;;4.30;2.72;;;11.00;99.90;;;;;;5090627;28;20028;-78
2022/12/21 05:25:14;;;;;;;2.80;2.55;;;11.10;99.90;;;;;;5090530;28;20027;-78
2022/12/21 05:27:40;;;;;;;3.75;2.60;;;11.00;99.90;;;;;;5090742;28;20055;-78
2022/12/21 05:30:06;;;;;;;2.60;2.40;;;11.00;99.90;;;;;;5090420;28;20432;-78
2022/12/21 05:32:32;;;;;;;4.15;2.65;;;11.00;99.90;;;;;;5070798;28;20043;-78
2022/12/21 05:34:57;;;;;;;3.58;2.75;;;10.90;99.90;;;;;;5070225;28;20100;-78
2022/12/21 05:37:23;;;;;;;3.45;2.85;;;11.00;99.90;;;;;;5070292;28;20078;-78
2022/12/21 05:39:49;;;;;;;3.47;2.58;;;10.90;99.90;;;;;;5070143;28;20025;-78
2022/12/21 05:42:14;;;;;;;3.35;3.05;;;11.00;99.90;;;;;;5070003;28;20035;-78
2022/12/21 05:44:40;;;;;;;2.78;2.58;;;11.00;99.90;;;;;;5070605;28;20513;-78
2022/12/21 05:47:06;;;;;;;4.15;2.58;;;11.00;99.90;;;;;;5071729;28;20379;-77
2022/12/21 05:49:31;;;;;;;3.35;2.70;;;11.00;99.90;;;;;;5090217;28;20024;-78
2022/12/21 05:51:57;;;;;;;4.15;3.00;;;11.00;99.90;;;;;;5073839;28;20573;-78
2022/12/21 05:54:23;;;;;;;3.50;2.90;;;11.00;99.90;;;;;;5069971;28;20020;-78
2022/12/21 05:56:48;;;;;;;3.38;3.08;;;10.90;99.90;;;;;;5070204;28;20078;-78
2022/12/21 05:59:15;;;;;;;4.72;3.33;;;10.90;99.90;;;;;;5069886;28;20054;-79
2022/12/21 06:01:41;;;;;;;3.05;2.75;;;10.90;99.90;;;;;;5071780;28;20560;-78
2022/12/21 06:04:07;;;;;;;5.13;3.10;;;10.80;99.90;;;;;;5074162;28;20159;-78
2022/12/21 06:06:32;;;;;;;5.13;2.90;;;10.80;99.90;;;;;;5073985;28;20516;-78
2022/12/21 06:08:58;;;;;;;3.45;3.15;;;10.80;99.90;;;;;;5081754;28;20020;-78
2022/12/21 06:11:25;;;;;;;4.10;3.17;;;10.80;99.90;;;;;;5094150;28;20024;-78
2022/12/21 06:13:53;;;;;;;4.32;3.50;;;10.80;99.90;;;;;;5093458;28;20042;-78
2022/12/21 06:16:21;;;;;;;4.50;2.90;;;10.80;99.90;;;;;;5094055;28;20028;-78
2022/12/21 06:18:47;;;;;;;5.63;3.60;;;10.70;99.90;;;;;;5093822;28;20020;-78
2022/12/21 06:21:14;;;;;;;6.00;3.83;;;10.70;99.90;;;;;;5093816;28;20050;-78
2022/12/21 06:23:40;;;;;;;3.58;3.25;;;10.80;99.90;;;;;;5093948;28;20051;-78
2022/12/21 06:26:08;;;;;;;3.45;3.03;;;10.90;99.90;;;;;;5093946;28;20036;-78
2022/12/21 06:28:34;;;;;;;6.35;3.70;;;10.80;99.90;;;;;;5093670;28;20119;-77
2022/12/21 06:31:04;;;;;;;3.28;2.92;;;10.90;99.90;;;;;;5087098;28;20020;-77
2022/12/21 06:33:30;;;;;;;3.50;2.90;;;10.90;99.90;;;;;;5074040;28;20543;-77
2022/12/21 06:35:56;;;;;;;4.63;3.13;;;10.80;99.90;;;;;;5073029;28;20020;-78
2022/12/21 06:38:23;;;;;;;6.03;2.92;;;10.80;99.90;;;;;;5073362;28;20025;-78
2022/12/21 06:40:56;;;;;;;4.30;3.45;;;10.80;99.90;;;;;;5072941;28;20044;-77
2022/12/21 06:43:23;;;;;;;4.00;3.25;;;10.80;99.90;;;;;;5072380;28;20108;-78
2022/12/21 06:45:56;;;;;;;4.07;3.38;;;10.80;99.90;;;;;;5072933;28;20025;-78
2022/12/21 06:48:23;;;;;;;3.35;2.92;;;10.90;99.90;;;;;;5073265;28;20108;-78
2022/12/21 06:50:57;;;;;;;3.95;3.20;;;10.90;99.90;;;;;;5073003;28;20108;-77
2022/12/21 06:53:24;;;;;;;3.38;2.83;;;11.00;99.90;;;;;;5073239;28;20052;-77
2022/12/21 06:55:57;;;;;;;4.25;3.17;;;11.00;99.90;;;;;;5073267;28;20044;-78
2022/12/21 06:58:23;;;;;;;3.28;2.97;;;11.00;99.90;;;;;;5072945;28;20059;-78
2022/12/21 07:00:49;;;;;;;3.00;2.78;;;11.00;99.90;;;;;;5072833;28;20048;-77
2022/12/21 07:03:15;;;;;;;3.55;3.05;;;10.90;99.90;;;;;;5073010;28;20025;-78
2022/12/21 07:05:40;;;;;;;3.83;2.97;;;11.00;99.90;;;;;;5072531;28;20027;-78
2022/12/21 07:08:06;;;;;;;3.78;3.17;;;11.10;99.90;;;;;;5073506;28;20254;-78
2022/12/21 07:10:32;;;;;;;4.15;2.80;;;11.10;99.90;;;;;;5092469;28;20489;-78
2022/12/21 07:12:58;;;;;;;3.47;2.85;;;11.10;99.90;;;;;;5084027;28;20109;-78
2022/12/21 07:15:23;;;;;;;3.80;3.15;;;11.00;99.90;;;;;;5072214;28;20489;-78
2022/12/21 07:17:49;;;;;;;3.50;3.20;;;10.90;99.90;;;;;;5072353;28;20545;-78
2022/12/21 07:20:15;;;;;;;3.38;3.08;;;10.90;99.90;;;;;;5072401;28;20031;-78
2022/12/21 07:22:40;;;;;;;4.10;3.28;;;11.00;99.90;;;;;;5072464;28;20513;-78
2022/12/21 07:25:06;;;;;;;5.35;3.17;;;11.00;99.90;;;;;;5072348;28;20529;-78
2022/12/21 07:27:32;;;;;;;3.55;3.17;;;11.10;99.90;;;;;;5072161;28;20091;-78
2022/12/21 07:29:57;;;;;;;4.47;3.05;;;11.00;99.90;;;;;;5072019;28;20021;-78
2022/12/21 07:32:23;;;;;;;3.33;2.85;;;11.00;99.90;;;;;;5072317;28;20021;-78
2022/12/21 07:34:49;;;;;;;3.30;3.00;;;11.00;99.90;;;;;;5071759;28;20020;-77
2022/12/21 07:37:15;;;;;;;3.72;3.00;;;11.10;99.90;;;;;;5071958;28;20039;-77
2022/12/21 07:39:40;;;;;;;3.38;2.95;;;11.10;99.90;;;;;;5072530;28;20036;-78
2022/12/21 07:42:06;;;;;;;4.18;3.15;;;11.10;99.90;;;;;;5072425;28;20035;-78
2022/12/21 07:44:31;;;;;;;4.53;3.42;;;11.10;99.90;;;;;;5072641;28;20021;-78
2022/12/21 07:46:57;;;;;;;3.10;2.80;;;11.10;99.90;;;;;;5071306;28;20031;-77
2022/12/21 07:49:23;;;;;;;3.25;2.95;;;11.10;99.90;;;;;;5071869;28;20070;-77
2022/12/21 07:51:48;;;;;;;5.07;2.88;;;11.00;99.90;;;;;;5086909;28;20020;-78
2022/12/21 07:54:14;;;;;;;2.85;2.55;;;11.00;99.90;;;;;;5072676;28;20408;-78
2022/12/21 07:56:40;;;;;;;4.13;2.63;;;11.00;99.90;;;;;;5071648;28;20545;-78
2022/12/21 07:59:06;;;;;;;3.30;3.00;;;11.00;99.90;;;;;;5072061;28;20021;-78
2022/12/21 08:01:31;;;;;;;3.30;2.97;;;11.00;99.90;;;;;;5070715;28;20397;-78
2022/12/21 08:03:58;;;;;;;4.05;3.53;;;11.00;99.90;;;;;;5071397;28;20514;-78
2022/12/21 08:06:23;;;;;;;4.05;3.45;;;11.10;99.90;;;;;;5065177;28;20121;-77
2022/12/21 08:08:50;;;;;;;4.35;3.35;;;11.20;99.90;;;;;;5074924;28;20462;-77
2022/12/21 08:11:18;;;;;;;4.30;3.90;;;11.40;99.90;;;;;;5077131;28;20028;-77
2022/12/21 08:13:44;;;;;;;4.18;3.65;;;11.50;99.90;;;;;;5068909;28;20333;-77
2022/12/21 08:16:12;;;;;;;4.13;3.67;;;11.40;99.90;;;;;;5067252;28;20055;-77
2022/12/21 08:18:38;;;;;;;4.72;3.85;;;11.40;99.90;;;;;;5071304;28;20031;-77
2022/12/21 08:21:04;;;;;;;4.75;3.80;;;11.50;99.90;;;;;;5069692;28;20032;-78
2022/12/21 08:23:30;;;;;;;4.07;3.53;;;11.40;99.90;;;;;;5070766;28;20103;-77
2022/12/21 08:26:07;;;;;;;6.15;4.20;;;11.50;99.90;;;;;;5067777;28;20119;-77
2022/12/21 08:28:33;;;;;;;4.38;3.90;;;11.60;99.90;;;;;;5069297;28;20329;-77
2022/12/21 08:31:03;;;;;;;5.32;4.70;;;11.70;99.90;;;;;;5066457;28;20028;-78
2022/12/21 08:33:28;;;;;;;6.82;4.70;;;11.70;99.90;;;;;;5066716;28;20520;-77
2022/12/21 08:35:54;;;;;;;6.38;4.82;;;11.60;99.90;;;;;;5069439;28;20025;-77
2022/12/21 08:38:20;;;;;;;5.03;4.47;;;11.60;99.90;;;;;;5069253;28;20712;-77
2022/12/21 08:40:45;;;;;;;6.13;4.85;;;11.50;99.90;;;;;;5068240;28;20020;-77
2022/12/21 08:43:11;;;;;;;5.75;4.30;;;11.50;99.90;;;;;;5069646;28;20571;-77
2022/12/21 08:45:39;;;;;;;6.07;4.55;;;11.40;99.90;;;;;;5067754;28;20489;-77
2022/12/21 08:48:05;;;;;;;5.00;4.50;;;11.40;99.90;;;;;;5068633;28;20012;-77
2022/12/21 08:50:30;;;;;;;5.25;4.75;;;11.40;99.90;;;;;;5068585;28;20032;-77
2022/12/21 08:52:56;;;;;;;6.63;5.05;;;11.50;99.90;;;;;;5068735;28;20445;-77
2022/12/21 08:55:22;;;;;;;6.70;5.03;;;11.60;99.90;;;;;;5069259;28;20497;-78
2022/12/21 08:57:47;;;;;;;6.80;5.10;;;11.70;99.90;;;;;;5068616;28;20028;-77
2022/12/21 09:00:13;;;;;;;5.78;5.18;;;11.90;99.90;;;;;;5070628;28;20025;-78
2022/12/21 09:02:39;;;;;;;6.35;4.82;;;13.30;99.90;;;;;;5080231;28;20024;-77
2022/12/21 09:05:05;;;;;;;7.35;5.40;;;13.90;99.90;;;;;;5068903;28;20539;-78
2022/12/21 09:07:31;;;;;;;5.68;5.18;;;14.10;99.90;;;;;;5068767;28;20063;-77
2022/12/21 09:09:56;;;;;;;7.25;5.13;;;15.20;99.90;;;;;;5083898;28;20024;-78
2022/12/21 09:12:22;;;;;;;5.40;4.90;;;17.00;99.90;;;;;;5069169;28;20324;-78
2022/12/21 09:14:48;;;;;;;7.32;5.15;;;16.40;99.90;;;;;;5067497;28;20078;-78
2022/12/21 09:17:13;;;;;;;6.53;5.32;;;14.70;99.90;;;;;;5068305;28;20524;-78
2022/12/21 09:19:39;;;;;;;5.38;4.53;;;13.80;99.90;;;;;;5068481;28;20031;-77
2022/12/21 09:22:05;;;;;;;6.40;4.80;;;13.30;99.90;;;;;;5068755;28;20035;-77
2022/12/21 09:24:31;;;;;;;7.53;5.22;;;13.00;99.90;;;;;;5066040;28;20040;-77
2022/12/21 09:26:57;;;;;;;6.78;5.30;;;12.90;99.90;;;;;;5070249;28;20517;-77
2022/12/21 09:29:23;;;;;;;7.32;5.07;;;12.80;99.90;;;;;;5068773;28;20062;-78
2022/12/21 09:31:50;;;;;;;5.72;5.03;;;12.70;99.90;;;;;;5068841;28;20049;-77
2022/12/21 09:34:17;;;;;;;5.68;5.03;;;12.80;99.90;;;;;;5068035;28;20020;-77
2022/12/21 09:36:43;;;;;;;5.35;4.85;;;12.70;99.90;;;;;;5069546;28;20079;-77
2022/12/21 09:39:08;;;;;;;5.25;4.75;;;12.70;99.90;;;;;;5072757;28;20109;-77
2022/12/21 09:41:59;;;;;;;5.05;4.55;;;12.60;99.90;;;;;;5072237;28;20036;-77
2022/12/21 09:45:19;;;;;;;5.55;4.95;;;12.60;99.90;;;;;;5071626;28;20024;-77
2022/12/21 09:47:53;;;;;;;6.63;5.05;;;12.90;99.90;;;;;;5004966;28;20532;-77
2022/12/21 09:50:29;;;;;;;5.10;4.25;;;13.10;99.90;;;;;;4990838;28;20097;-77
2022/12/21 09:53:11;;;;;;;5.10;4.60;;;13.20;99.90;;;;;;5009616;28;20029;-77
2022/12/21 09:55:46;;;;;;;5.60;4.80;;;13.30;99.90;;;;;;4996738;28;20030;-78
2022/12/21 09:58:17;;;;;;;6.97;4.70;;;13.30;99.90;;;;;;5003615;28;20069;-78
2022/12/21 10:00:47;;;;;;;7.05;4.57;;;13.30;99.90;;;;;;4995513;28;20029;-78
2022/12/21 10:03:24;;;;;;;6.80;4.80;;;13.20;99.90;;;;;;5003521;28;20038;-78
2022/12/21 10:06:12;;;;;;;6.80;4.53;;;13.10;99.90;;;;;;5001774;28;20080;-78
2022/12/21 10:08:46;;;;;;;4.70;4.13;;;13.00;99.90;;;;;;5002129;28;20036;-78
2022/12/21 10:11:48;;;;;;;5.25;4.05;;;13.00;99.90;;;;;;5010320;28;20037;-78
2022/12/21 10:14:26;;;;;;;4.50;4.05;;;13.10;99.90;;;;;;4998541;28;20061;-78
2022/12/21 10:17:30;;;;;;;5.60;4.38;;;13.00;99.90;;;;;;4998710;28;20041;-78
2022/12/21 10:20:26;;;;;;;4.78;4.03;;;13.20;99.90;;;;;;4996235;28;20037;-78
2022/12/21 10:22:57;;;;;;;4.25;3.45;;;13.50;99.90;;;;;;5036472;28;20043;-77
2022/12/21 10:25:25;;;;;;;4.53;3.60;;;13.60;99.90;;;;;;5071968;28;20115;-77
2022/12/21 10:27:59;;;;;;;4.00;3.60;;;13.80;99.90;;;;;;5071331;28;20317;-78
2022/12/21 10:30:25;;;;;;;3.70;3.28;;;14.00;99.90;;;;;;5078085;28;20020;-78
2022/12/21 10:32:51;;;;;;;4.07;3.67;;;14.10;99.90;;;;;;5073188;28;20021;-78
2022/12/21 10:35:19;;;;;;;5.72;3.85;;;14.00;99.90;;;;;;5070526;28;20020;-78
2022/12/21 10:37:50;;;;;;;4.80;3.75;;;14.10;99.90;;;;;;5070906;28;20036;-78
2022/12/21 10:40:20;;;;;;;4.60;3.47;;;14.10;99.90;;;;;;5071298;28;20020;-78
2022/12/21 10:42:49;;;;;;;3.55;3.22;;;14.20;99.90;;;;;;5071114;28;20033;-79
2022/12/21 10:45:18;;;;;;;4.25;3.60;;;14.20;99.90;;;;;;5070449;28;20047;-78
2022/12/21 10:47:44;;;;;;;3.67;3.35;;;14.30;99.90;;;;;;5070907;28;20028;-78
2022/12/21 10:50:25;;;;;;;4.15;3.38;;;14.40;99.90;;;;;;5073066;28;20637;-78
2022/12/21 10:52:54;;;;;;;3.85;3.47;;;14.50;99.90;;;;;;5069214;28;20028;-78
2022/12/21 10:55:19;;;;;;;4.07;3.30;;;14.40;99.90;;;;;;5070574;28;20031;-78
2022/12/21 10:57:55;;;;;;;3.30;3.00;;;14.60;99.90;;;;;;5070745;28;20111;-78
2022/12/21 11:00:27;;;;;;;3.97;3.03;;;14.60;99.90;;;;;;5070993;28;20039;-78
2022/12/21 11:02:56;;;;;;;4.32;3.30;;;14.90;99.90;;;;;;5071355;28;20036;-78
2022/12/21 11:05:42;;;;;;;4.68;3.33;;;15.10;99.90;;;;;;5070104;28;20258;-79
2022/12/21 11:08:14;;;;;;;4.00;3.15;;;15.00;99.90;;;;;;5071239;28;20028;-78
2022/12/21 11:10:40;;;;;;;;;;;15.00;99.90;;;;;;5091668;28;20042;-78
2022/12/21 11:13:07;;;;;;;5.88;4.72;;;15.00;99.90;;;;;;5071663;28;19915;-78
2022/12/21 11:15:33;;;;;;;10.40;6.25;;;15.00;99.90;;;;;;5078918;28;20024;-78
2022/12/21 11:18:00;;;;;;;13.38;7.30;;;15.00;99.90;;;;;;5075029;28;20029;-78
2022/12/21 11:20:26;;;;;;;11.75;7.75;;;15.00;99.90;;;;;;5091301;28;20020;-78
2022/12/21 11:22:55;;;;;;;10.13;6.50;;;15.00;99.90;;;;;;5074876;28;20118;-78
2022/12/21 11:25:25;;;;;;;9.18;5.95;;;14.90;99.90;;;;;;5071285;28;20020;-78
2022/12/21 11:27:57;;;;;;;7.57;4.80;;;15.00;99.90;;;;;;5070414;28;20052;-78
2022/12/21 11:30:33;;;;;;;6.93;5.07;;;15.10;99.90;;;;;;5071393;28;20036;-78
2022/12/21 11:33:00;;;;;;;6.40;4.53;;;15.30;99.90;;;;;;5070143;28;20024;-78
2022/12/21 11:35:34;;;;;;;4.35;3.50;;;15.30;99.90;;;;;;5062665;28;20021;-78
2022/12/21 11:38:13;;;;;;;5.00;3.67;;;15.30;99.90;;;;;;5070483;28;20134;-78
2022/12/21 11:40:53;;;;;;;4.05;3.22;;;15.30;99.90;;;;;;5071423;28;20020;-78
2022/12/21 11:43:19;;;;;;;4.13;3.03;;;15.40;99.90;;;;;;5070597;28;20056;-78
2022/12/21 11:46:20;;;;;;;4.75;3.75;;;15.40;99.90;;;;;;5073631;28;20056;-78
2022/12/21 11:48:52;;;;;;;3.50;3.20;;;15.20;99.90;;;;;;5070421;28;20035;-78
2022/12/21 11:51:33;;;;;;;3.55;3.20;;;15.10;99.90;;;;;;5070397;28;20017;-78
2022/12/21 11:54:09;;;;;;;4.30;3.20;;;15.20;99.90;;;;;;5070522;28;20024;-78
2022/12/21 11:57:12;;;;;;;3.22;2.80;;;15.30;99.90;;;;;;5070506;28;20031;-78
2022/12/21 11:59:46;;;;;;;3.58;3.00;;;15.30;99.90;;;;;;5059813;28;20032;-78
2022/12/21 12:02:27;;;;;;;3.40;3.08;;;15.40;99.90;;;;;;5069772;28;20348;-78
2022/12/21 12:04:52;;;;;;;4.60;3.33;;;15.40;99.90;;;;;;5067914;28;20036;-78
2022/12/21 12:07:36;;;;;;;2.60;2.40;;;15.20;99.90;;;;;;5069342;28;20479;-78
2022/12/21 12:10:21;;;;;;;2.78;2.35;;;15.40;99.90;;;;;;5068855;28;20028;-78
2022/12/21 12:13:01;;;;;;;2.50;2.30;;;15.30;99.90;;;;;;5069717;28;20020;-78
2022/12/21 12:15:41;;;;;;;3.13;2.40;;;15.40;99.90;;;;;;5069857;28;20025;-78
2022/12/21 12:18:19;;;;;;;2.08;1.70;;;15.50;99.90;;;;;;5069352;28;20028;-78
2022/12/21 12:21:12;;;;;;;1.58;1.42;;;15.40;99.90;;;;;;5070121;28;20108;-78
2022/12/21 12:23:57;;;;;;;1.50;1.40;;;15.60;99.90;;;;;;5069891;28;20028;-78
2022/12/21 12:26:51;;;;;;;1.38;1.00;;;15.50;99.90;;;;;;5069873;28;20032;-78
2022/12/21 12:29:20;;;;;;;1.20;1.10;;;15.50;99.90;;;;;;5071305;28;20546;-78
2022/12/21 12:32:11;;;;;;;1.20;1.10;;;15.60;99.90;;;;;;5077445;28;20013;-78
2022/12/21 12:35:25;;;;;;;1.92;1.50;;;15.50;99.90;;;;;;5069870;28;20547;-78
2022/12/21 12:38:09;;;;;;;1.80;1.20;;;15.70;99.90;;;;;;5057031;28;20181;-78
2022/12/21 12:41:04;;;;;;;0.95;0.90;;;15.70;99.90;;;;;;5070318;28;20025;-78
2022/12/21 12:43:35;;;;;;;1.48;1.38;;;15.80;99.90;;;;;;5070106;28;20029;-78
2022/12/21 12:46:14;;;;;;;1.10;1.10;;;15.80;99.90;;;;;;5070833;28;20082;-77
2022/12/21 12:48:50;;;;;;;1.63;1.20;;;15.70;99.90;;;;;;5069683;28;20037;-77
2022/12/21 12:51:24;;;;;;;1.83;1.10;;;15.70;99.90;;;;;;5069147;28;20016;-78
2022/12/21 12:54:07;;;;;;;0.88;0.88;;;15.60;99.90;;;;;;5069711;28;20047;-78
2022/12/21 12:57:09;;;;;;;1.10;1.08;;;15.70;99.90;;;;;;5069227;28;20134;-78
2022/12/21 12:59:51;;;;;;;1.20;1.10;;;15.70;99.90;;;;;;5063775;28;20040;-78
2022/12/21 13:02:28;;;;;;;1.40;1.30;;;15.50;99.90;;;;;;5068403;28;20036;-78
2022/12/21 13:05:30;;;;;;;1.25;1.15;;;15.60;99.90;;;;;;5066691;28;20028;-78
2022/12/21 13:07:56;;;;;;;1.75;1.20;;;15.60;99.90;;;;;;4986939;28;20190;-78
2022/12/21 13:10:50;;;;;;;1.27;1.17;;;15.80;99.90;;;;;;4987068;28;20031;-78
2022/12/21 13:13:40;;;;;;;1.25;1.15;;;15.50;99.90;;;;;;4986449;28;20069;-78
2022/12/21 13:16:18;;;;;;;1.05;1.05;;;15.50;99.90;;;;;;4980270;28;20052;-78
2022/12/21 13:19:08;;;;;;;0.85;0.85;;;15.80;99.90;;;;;;4992208;28;20093;-78
2022/12/21 13:21:37;;;;;;;0.90;0.90;;;15.70;99.90;;;;;;4999743;28;20197;-78
2022/12/21 13:24:10;;;;;;;1.38;1.10;;;15.70;99.90;;;;;;4995801;28;20182;-78